Homer, Michigan
Current Conditions -  °F | °C
As of 8:13 AM on Thursday 23 Oct 2014 (Local Time) from KRMY Reporting Station
Moderate Fog Moderate Fog  
Wind Chill: 28°   Ceiling: 200
Heat Index: 28°   Visibility: 0mi
Dew Point: 28°   Wind: 0mph
Humidity: 99%   Direction: NA
Pressure: 30.24"   Gusts: NA
Location:  42.15°N, 84.81°W
Report Text: KRMY 231213Z AUTO 00000KT M1/4SM FZFG OVC002 M02/M02 A3024 RMK AO2 T10201021
Loading
Personal Weather Stations






























Interactive Weather Map
Tropical Storm Tracking
New forecast layout! Learn more

10-Day Weather Forecast

Advertisements
Track Severe Weather on mobile